Eos — FAD9780 — position and weather

sailwx.info

Track history (hours):
 
Tides and Currents Weather Stations Pressure Air Temp Water Temp Dewpoint Dewpoint Depression Visibility Wind Speed Wind Dir Waves Ship Positions

Eos

Last reported at 2018-Jun-11 19:24 UTC. Time now 2018-Jun-20 05:40 UTC.
Position N 36°57' W 008°09'.
Warning: this ship's position is 8 days out of date.

Length 12 m.

Type: Sailing vessel. MMSI: 227450730.

Date/timePositionNaut miles runAvg speedWind from/ knotsBaromVisibWave heightAir tempDewpointWater temp
2018-Jun-11 19:24N 36°57' W 008°09'3 6.5
2018-Jun-11 18:58N 36°58' W 008°13'3 6.6
2018-Jun-11 18:30N 36°58' W 008°17'4 6.8
2018-Jun-11 17:59N 36°58' W 008°21'3 6.7
2018-Jun-11 17:28N 36°58' W 008°25'3 7.4
2018-Jun-11 17:00N 36°59' W 008°30'4 7.1
2018-Jun-11 16:30N 36°59' W 008°34'3 6.5
2018-Jun-11 15:59N 36°59' W 008°38'  
2018-Jun-06 22:50N 37°37' W 024°07'3 7.4
2018-Jun-06 22:29N 37°37' W 024°10'3 7.2
2018-Jun-06 22:00N 37°37' W 024°14'4 7.1
2018-Jun-06 21:29N 37°38' W 024°19'3 6.3
2018-Jun-06 21:00N 37°38' W 024°23'3 6.0
2018-Jun-06 20:30N 37°38' W 024°26'3 6.2
2018-Jun-06 20:00N 37°39' W 024°30'3 6.3
2018-Jun-06 19:30N 37°39' W 024°34'3 6.4
2018-Jun-06 19:00N 37°39' W 024°38'3 6.2
2018-Jun-06 18:30N 37°39' W 024°42'3 6.8
2018-Jun-06 18:01N 37°39' W 024°47'3 6.9
2018-Jun-06 17:30N 37°40' W 024°51'3 7.0
2018-Jun-06 17:00N 37°40' W 024°55'3 7.0
2018-Jun-06 16:30N 37°40' W 024°60'3 6.5
2018-Jun-06 16:00N 37°40' W 025°04'2 4.4
2018-Jun-06 15:30N 37°42' W 025°05'3 5.3
2018-Jun-06 15:00N 37°42' W 025°09'3 5.9
2018-Jun-06 14:31N 37°42' W 025°12'3 5.5
2018-Jun-06 14:00N 37°42' W 025°16'3 5.5
2018-Jun-06 13:30N 37°42' W 025°19'3 5.6
2018-Jun-06 13:01N 37°42' W 025°23'3 5.9
2018-Jun-06 12:30N 37°42' W 025°27'3 5.0
2018-Jun-06 11:59N 37°42' W 025°30'3 5.2
2018-Jun-06 11:31N 37°42' W 025°33'3 5.9
2018-Jun-06 11:00N 37°43' W 025°36'2 4.8
2018-Jun-06 10:30N 37°44' W 025°39'1 1.1
2018-Jun-06 10:00N 37°44' W 025°40'0 0.0
2018-Jun-06 09:30N 37°44' W 025°40'0 0.0
2018-Jun-06 08:54N 37°44' W 025°40'0 0.0
2018-Jun-06 08:30N 37°44' W 025°40'0 0.0
2018-Jun-06 08:00N 37°44' W 025°40'0 0.0
2018-Jun-06 07:30N 37°44' W 025°40'0 0.0
2018-Jun-06 07:00N 37°44' W 025°40'0 0.0
2018-Jun-06 06:30N 37°44' W 025°40'0 0.0
2018-Jun-06 06:00N 37°44' W 025°40'0 0.0
2018-Jun-06 05:30N 37°44' W 025°40'0 0.0
2018-Jun-06 05:00N 37°44' W 025°40'0 0.0
2018-Jun-06 04:30N 37°44' W 025°40'0 0.0
2018-Jun-06 04:00N 37°44' W 025°40'0 0.0
2018-Jun-06 03:30N 37°44' W 025°40'0 0.0
2018-Jun-06 03:00N 37°44' W 025°40'0 0.0
2018-Jun-06 02:30N 37°44' W 025°40'0 0.0
2018-Jun-06 02:00N 37°44' W 025°40'0 0.0
2018-Jun-06 01:30N 37°44' W 025°40'0 0.0
2018-Jun-06 01:00N 37°44' W 025°40'0 0.0
2018-Jun-06 00:30N 37°44' W 025°40'0 0.0
2018-Jun-06 00:00N 37°44' W 025°40'0 0.0
2018-Jun-05 23:30N 37°44' W 025°40'0 0.0
2018-Jun-05 23:00N 37°44' W 025°40'0 0.0
2018-Jun-05 22:27N 37°44' W 025°40'0 0.0
2018-Jun-05 22:00N 37°44' W 025°40'0 0.0
2018-Jun-05 21:30N 37°44' W 025°40'0 0.0
2018-Jun-05 21:00N 37°44' W 025°40'0 0.0
2018-Jun-05 20:30N 37°44' W 025°40'0 0.0
2018-Jun-05 20:00N 37°44' W 025°40'0 0.0
2018-Jun-05 19:30N 37°44' W 025°40'0 0.0
2018-Jun-05 19:00N 37°44' W 025°40'0 0.0
2018-Jun-05 18:30N 37°44' W 025°40'0 0.0
2018-Jun-05 18:00N 37°44' W 025°40'0 0.0
2018-Jun-05 17:30N 37°44' W 025°40'0 0.0
2018-Jun-05 17:00N 37°44' W 025°40'0 0.0
2018-Jun-05 16:30N 37°44' W 025°40'0 0.0
2018-Jun-05 16:00N 37°44' W 025°40'0 0.0
2018-Jun-05 15:30N 37°44' W 025°40'0 0.0
2018-Jun-05 15:00N 37°44' W 025°40'0 0.0
2018-Jun-05 14:30N 37°44' W 025°40'0 0.0
2018-Jun-05 14:00N 37°44' W 025°40'0 0.0
2018-Jun-05 13:30N 37°44' W 025°40'0 0.0
2018-Jun-05 13:00N 37°44' W 025°40'0 0.0
2018-Jun-05 12:30N 37°44' W 025°40'0 0.0
2018-Jun-05 12:00N 37°44' W 025°40'0 0.0
2018-Jun-05 11:30N 37°44' W 025°40'0 0.0
2018-Jun-05 11:00N 37°44' W 025°40'0 0.4
2018-Jun-05 10:26N 37°44' W 025°40'0 0.0
2018-Jun-05 09:59N 37°44' W 025°40'0 0.0
2018-Jun-05 09:29N 37°44' W 025°40'0 0.0
2018-Jun-05 08:59N 37°44' W 025°40'0 0.0
2018-Jun-05 08:29N 37°44' W 025°40'1 1.6
2018-Jun-05 08:00N 37°44' W 025°40'3 5.1
2018-Jun-05 07:30N 37°43' W 025°43'2 4.7
2018-Jun-05 07:00N 37°43' W 025°46'3 5.1
2018-Jun-05 06:30N 37°43' W 025°49'3 5.4
2018-Jun-05 06:00N 37°43' W 025°53'2 5.0
2018-Jun-05 05:30N 37°42' W 025°56'3 5.7
2018-Jun-05 05:00N 37°42' W 025°59'3 5.4
2018-Jun-05 04:30N 37°42' W 026°03'3 5.2
2018-Jun-05 04:00N 37°41' W 026°06'3 5.4
2018-Jun-05 03:30N 37°40' W 026°09'3 5.5
2018-Jun-05 03:00N 37°40' W 026°13'3 5.6
2018-Jun-05 02:30N 37°40' W 026°16'3 5.9
2018-Jun-05 02:00N 37°39' W 026°20'3 6.4
2018-Jun-05 01:30N 37°39' W 026°24'3 6.7
2018-Jun-05 01:00N 37°39' W 026°28'4 7.2
2018-Jun-05 00:30N 37°39' W 026°33'3 6.6
2018-Jun-05 00:00N 37°38' W 026°37'3 6.5
2018-Jun-04 23:28N 37°37' W 026°41'55 7.2
2018-Jun-04 15:53N 37°28' W 027°50'5 7.0
2018-Jun-04 15:08N 37°28' W 027°56'2 7.2
2018-Jun-04 14:53N 37°27' W 027°58'9 6.6
2018-Jun-04 13:35N 37°26' W 028°09'1 6.7
2018-Jun-04 13:28N 37°26' W 028°10'3 6.2
2018-Jun-04 12:57N 37°26' W 028°14'3 5.7
2018-Jun-04 12:29N 37°25' W 028°17'10 5.8
2018-Jun-04 10:46N 37°24' W 028°30'6 5.6
2018-Jun-04 09:41N 37°22' W 028°37'1 6.0
2018-Jun-04 09:29N 37°22' W 028°39'10 4.9
2018-Jun-04 07:28N 37°19' W 028°51'  
Track history (hours):
 
Tides and Currents Weather Stations Pressure Air Temp Water Temp Dewpoint Dewpoint Depression Visibility Wind Speed Wind Dir Waves Ship Positions

Eos

Last reported at 2018-Jun-11 19:24 UTC. Time now 2018-Jun-20 05:40 UTC.
Position N 36°57' W 008°09'.
Warning: this ship's position is 8 days out of date.

Length 12 m.

Type: Sailing vessel. MMSI: 227450730.

Date/timePositionNaut miles runAvg speedWind from/ knotsBaromVisibWave heightAir tempDewpointWater temp
2018-Jun-11 19:24N 36°57' W 008°09'3 6.5
2018-Jun-11 18:58N 36°58' W 008°13'3 6.6
2018-Jun-11 18:30N 36°58' W 008°17'4 6.8
2018-Jun-11 17:59N 36°58' W 008°21'3 6.7
2018-Jun-11 17:28N 36°58' W 008°25'3 7.4
2018-Jun-11 17:00N 36°59' W 008°30'4 7.1
2018-Jun-11 16:30N 36°59' W 008°34'3 6.5
2018-Jun-11 15:59N 36°59' W 008°38'  
2018-Jun-06 22:50N 37°37' W 024°07'3 7.4
2018-Jun-06 22:29N 37°37' W 024°10'3 7.2
2018-Jun-06 22:00N 37°37' W 024°14'4 7.1
2018-Jun-06 21:29N 37°38' W 024°19'3 6.3
2018-Jun-06 21:00N 37°38' W 024°23'3 6.0
2018-Jun-06 20:30N 37°38' W 024°26'3 6.2
2018-Jun-06 20:00N 37°39' W 024°30'3 6.3
2018-Jun-06 19:30N 37°39' W 024°34'3 6.4
2018-Jun-06 19:00N 37°39' W 024°38'3 6.2
2018-Jun-06 18:30N 37°39' W 024°42'3 6.8
2018-Jun-06 18:01N 37°39' W 024°47'3 6.9
2018-Jun-06 17:30N 37°40' W 024°51'3 7.0
2018-Jun-06 17:00N 37°40' W 024°55'3 7.0
2018-Jun-06 16:30N 37°40' W 024°60'3 6.5
2018-Jun-06 16:00N 37°40' W 025°04'2 4.4
2018-Jun-06 15:30N 37°42' W 025°05'3 5.3
2018-Jun-06 15:00N 37°42' W 025°09'3 5.9
2018-Jun-06 14:31N 37°42' W 025°12'3 5.5
2018-Jun-06 14:00N 37°42' W 025°16'3 5.5
2018-Jun-06 13:30N 37°42' W 025°19'3 5.6
2018-Jun-06 13:01N 37°42' W 025°23'3 5.9
2018-Jun-06 12:30N 37°42' W 025°27'3 5.0
2018-Jun-06 11:59N 37°42' W 025°30'3 5.2
2018-Jun-06 11:31N 37°42' W 025°33'3 5.9
2018-Jun-06 11:00N 37°43' W 025°36'2 4.8
2018-Jun-06 10:30N 37°44' W 025°39'1 1.1
2018-Jun-06 10:00N 37°44' W 025°40'0 0.0
2018-Jun-06 09:30N 37°44' W 025°40'0 0.0
2018-Jun-06 08:54N 37°44' W 025°40'0 0.0
2018-Jun-06 08:30N 37°44' W 025°40'0 0.0
2018-Jun-06 08:00N 37°44' W 025°40'0 0.0
2018-Jun-06 07:30N 37°44' W 025°40'0 0.0
2018-Jun-06 07:00N 37°44' W 025°40'0 0.0
2018-Jun-06 06:30N 37°44' W 025°40'0 0.0
2018-Jun-06 06:00N 37°44' W 025°40'0 0.0
2018-Jun-06 05:30N 37°44' W 025°40'0 0.0
2018-Jun-06 05:00N 37°44' W 025°40'0 0.0
2018-Jun-06 04:30N 37°44' W 025°40'0 0.0
2018-Jun-06 04:00N 37°44' W 025°40'0 0.0
2018-Jun-06 03:30N 37°44' W 025°40'0 0.0
2018-Jun-06 03:00N 37°44' W 025°40'0 0.0
2018-Jun-06 02:30N 37°44' W 025°40'0 0.0
2018-Jun-06 02:00N 37°44' W 025°40'0 0.0
2018-Jun-06 01:30N 37°44' W 025°40'0 0.0
2018-Jun-06 01:00N 37°44' W 025°40'0 0.0
2018-Jun-06 00:30N 37°44' W 025°40'0 0.0
2018-Jun-06 00:00N 37°44' W 025°40'0 0.0
2018-Jun-05 23:30N 37°44' W 025°40'0 0.0
2018-Jun-05 23:00N 37°44' W 025°40'0 0.0
2018-Jun-05 22:27N 37°44' W 025°40'0 0.0
2018-Jun-05 22:00N 37°44' W 025°40'0 0.0
2018-Jun-05 21:30N 37°44' W 025°40'0 0.0
2018-Jun-05 21:00N 37°44' W 025°40'0 0.0
2018-Jun-05 20:30N 37°44' W 025°40'0 0.0
2018-Jun-05 20:00N 37°44' W 025°40'0 0.0
2018-Jun-05 19:30N 37°44' W 025°40'0 0.0
2018-Jun-05 19:00N 37°44' W 025°40'0 0.0
2018-Jun-05 18:30N 37°44' W 025°40'0 0.0
2018-Jun-05 18:00N 37°44' W 025°40'0 0.0
2018-Jun-05 17:30N 37°44' W 025°40'0 0.0
2018-Jun-05 17:00N 37°44' W 025°40'0 0.0
2018-Jun-05 16:30N 37°44' W 025°40'0 0.0
2018-Jun-05 16:00N 37°44' W 025°40'0 0.0
2018-Jun-05 15:30N 37°44' W 025°40'0 0.0
2018-Jun-05 15:00N 37°44' W 025°40'0 0.0
2018-Jun-05 14:30N 37°44' W 025°40'0 0.0
2018-Jun-05 14:00N 37°44' W 025°40'0 0.0
2018-Jun-05 13:30N 37°44' W 025°40'0 0.0
2018-Jun-05 13:00N 37°44' W 025°40'0 0.0
2018-Jun-05 12:30N 37°44' W 025°40'0 0.0
2018-Jun-05 12:00N 37°44' W 025°40'0 0.0
2018-Jun-05 11:30N 37°44' W 025°40'0 0.0
2018-Jun-05 11:00N 37°44' W 025°40'0 0.4
2018-Jun-05 10:26N 37°44' W 025°40'0 0.0
2018-Jun-05 09:59N 37°44' W 025°40'0 0.0
2018-Jun-05 09:29N 37°44' W 025°40'0 0.0
2018-Jun-05 08:59N 37°44' W 025°40'0 0.0
2018-Jun-05 08:29N 37°44' W 025°40'1 1.6
2018-Jun-05 08:00N 37°44' W 025°40'3 5.1
2018-Jun-05 07:30N 37°43' W 025°43'2 4.7
2018-Jun-05 07:00N 37°43' W 025°46'3 5.1
2018-Jun-05 06:30N 37°43' W 025°49'3 5.4
2018-Jun-05 06:00N 37°43' W 025°53'2 5.0
2018-Jun-05 05:30N 37°42' W 025°56'3 5.7
2018-Jun-05 05:00N 37°42' W 025°59'3 5.4
2018-Jun-05 04:30N 37°42' W 026°03'3 5.2
2018-Jun-05 04:00N 37°41' W 026°06'3 5.4
2018-Jun-05 03:30N 37°40' W 026°09'3 5.5
2018-Jun-05 03:00N 37°40' W 026°13'3 5.6
2018-Jun-05 02:30N 37°40' W 026°16'3 5.9
2018-Jun-05 02:00N 37°39' W 026°20'3 6.4
2018-Jun-05 01:30N 37°39' W 026°24'3 6.7
2018-Jun-05 01:00N 37°39' W 026°28'4 7.2
2018-Jun-05 00:30N 37°39' W 026°33'3 6.6
2018-Jun-05 00:00N 37°38' W 026°37'3 6.5
2018-Jun-04 23:28N 37°37' W 026°41'55 7.2
2018-Jun-04 15:53N 37°28' W 027°50'5 7.0
2018-Jun-04 15:08N 37°28' W 027°56'2 7.2
2018-Jun-04 14:53N 37°27' W 027°58'9 6.6
2018-Jun-04 13:35N 37°26' W 028°09'1 6.7
2018-Jun-04 13:28N 37°26' W 028°10'3 6.2
2018-Jun-04 12:57N 37°26' W 028°14'3 5.7
2018-Jun-04 12:29N 37°25' W 028°17'10 5.8
2018-Jun-04 10:46N 37°24' W 028°30'6 5.6
2018-Jun-04 09:41N 37°22' W 028°37'1 6.0
2018-Jun-04 09:29N 37°22' W 028°39'10 4.9
2018-Jun-04 07:28N 37°19' W 028°51'  

Dump ship's entire track history